Argus, California
Current Conditions -  °F | °C
As of 5:56 PM on Tuesday 21 Oct 2014 (Local Time) from KNID Reporting Station
Scattered Clouds Scattered Clouds  
Wind Chill: 26°   Ceiling: Unl
Heat Index: 26°   Visibility: 10mi
Dew Point: -1°   Wind: 3mph
Humidity: 17%   Direction: NA
Pressure: 29.83"   Gusts: NA
Location:  35.6496°N, 117.375°W
Report Text: KNID 220056Z VRB03KT 10SM SCT270 26/M01 A2983 RMK AO2 SLP087 T02561011 $
Loading
Personal Weather Stations






























Interactive Weather Map New forecast layout! Learn more

10-Day Weather Forecast

Advertisements
Track Severe Weather on mobile